Minneapolis/St.Paul Radar Regional Satellite Twin Cities Traffic Info Map
Radar Satellite Traffic Traffic Cams
KLVN - Lakeville, Minnesota, USA
Distance from station: ENE 4mi, 6km
Updated: Sat, 16-Dec-2017 8:15pm CST

 Wind from NE
Wind: NE 3 mph , 6 km/h
Temperature: 23°F , -5°C
Dew Point: 19°F , -7°C
Humidity: 86%
Barometer: 30.08 inHg , 1018.6 hPa
Visibility: 10 miles , 16 km
2017/12/17 02:15 KLVN 170215Z AUTO 04003KT 10SM M05/M07 A3008 RMK AO2
KFCM - Eden Prairie, Minnesota, USA
Distance from station: NNW 17mi, 28km
Updated: Sat, 16-Dec-2017 7:53pm CST
Overcast
Overcast
 Wind from ENE
Wind: ENE 7 mph , 11 km/h
Temperature: 28°F , -2°C
Wind Chill: 21°F , -6°C
Dew Point: 21°F , -6°C
Humidity: 74%
Barometer: 30.07 inHg , 1018.3 hPa
Clouds: Overcast
Visibility: 10 miles , 16 km
Cloud details: Overcast 1800 ft
2017/12/17 01:53 KFCM 170153Z 07006KT 10SM OVC018 M02/M06 A3007 RMK AO2 SLP195 T10221061
 
KSYN - Stanton, Minnesota, USA
Distance from station: SE 18mi, 28km
Updated: Sat, 16-Dec-2017 8:15pm CST
Clear
Clear
 Wind from calm
Wind: Calm
Temperature: 25°F , -4°C
Dew Point: 21°F , -6°C
Humidity: 86%
Barometer: 30.07 inHg , 1018.3 hPa
Clouds: Clear
Visibility: 10 miles , 16 km
2017/12/17 02:15 KSYN 170215Z AUTO 00000KT 10SM CLR M04/M06 A3007 RMK AO2 T10401061
KFBL - Faribault, Minnesota, USA
Distance from station: S 19mi, 31km
Updated: Sat, 16-Dec-2017 8:15pm CST
Overcast
Overcast
 Wind from calm
Wind: Calm
Temperature: 28°F , -2°C
Dew Point: 25°F , -4°C
Humidity: 86%
Barometer: 30.06 inHg , 1017.9 hPa
Clouds: Overcast
Visibility: 7 miles , 11 km
Cloud details: Overcast 800 ft
2017/12/17 02:15 KFBL 170215Z AUTO 00000KT 7SM OVC008 M02/M04 A3006 RMK AO2
 
KMSP - Minneapolis, Minnesota, USA
Distance from station: N 19mi, 31km
Updated: Sat, 16-Dec-2017 7:53pm CST
Overcast
Overcast
 Wind from ENE
Wind: ENE 6 mph , 9 km/h
Temperature: 27°F , -3°C
Wind Chill: 20°F , -7°C
Dew Point: 19°F , -7°C
Humidity: 74%
Barometer: 30.08 inHg , 1018.6 hPa
Clouds: Overcast
Visibility: 10 miles , 16 km
Cloud details: Overcast 2000 ft
2017/12/17 01:53 KMSP 170153Z 06005KT 10SM OVC020 M03/M07 A3008 RMK AO2 SLP198 T10331067